Time;durP1;ratioP1;P1;durP2;ratioP2;P2;SDS_P1;SDS_P2;PMS_P1;PMS_P2;Temp;Humidity;BMP_temperature;BMP_pressure;BME280_temperature;BME280_humidity;BME280_pressure;Samples;Min_cycle;Max_cycle;Signal;HPM_P1;HPM_P2
2023/04/29 00:01:29;;;;;;;18.50;11.40;;;9.30;99.90;;;;;;5039947;28;20105;-78
2023/04/29 00:03:55;;;;;;;23.83;11.20;;;9.20;99.90;;;;;;5064355;28;20464;-77
2023/04/29 00:06:22;;;;;;;18.83;11.20;;;9.20;99.90;;;;;;5049945;28;20411;-78
2023/04/29 00:08:48;;;;;;;20.10;11.13;;;9.10;99.90;;;;;;5058494;28;20036;-75
2023/04/29 00:11:14;;;;;;;25.40;11.13;;;9.10;99.90;;;;;;5053250;28;20111;-78
2023/04/29 00:13:40;;;;;;;22.13;11.63;;;9.00;99.90;;;;;;5064950;28;20045;-76
2023/04/29 00:16:09;;;;;;;21.27;11.07;;;9.00;99.90;;;;;;5038730;28;20036;-76
2023/04/29 00:18:36;;;;;;;17.33;11.02;;;8.90;99.90;;;;;;5070441;28;20048;-78
2023/04/29 00:21:04;;;;;;;18.75;11.52;;;8.90;99.90;;;;;;5057289;28;20048;-79
2023/04/29 00:23:31;;;;;;;20.48;11.30;;;8.90;99.90;;;;;;5065015;28;20056;-77
2023/04/29 00:25:57;;;;;;;23.50;11.35;;;8.90;99.90;;;;;;5065428;28;20051;-77
2023/04/29 00:28:23;;;;;;;19.90;11.52;;;8.80;99.90;;;;;;5054816;28;20040;-75
2023/04/29 00:30:49;;;;;;;21.08;12.23;;;8.80;99.90;;;;;;5065447;28;20229;-77
2023/04/29 00:33:20;;;;;;;23.67;12.60;;;8.80;99.90;;;;;;5072651;28;20114;-77
2023/04/29 00:35:46;;;;;;;20.13;13.07;;;8.80;99.90;;;;;;5031303;28;20056;-77
2023/04/29 00:38:12;;;;;;;24.70;14.07;;;8.90;99.90;;;;;;5066350;28;20087;-78
2023/04/29 00:40:38;;;;;;;24.30;13.57;;;8.90;99.90;;;;;;5065318;28;20078;-78
2023/04/29 00:43:05;;;;;;;28.20;13.60;;;8.90;99.90;;;;;;5055430;28;20380;-79
2023/04/29 00:45:34;;;;;;;24.85;13.73;;;8.90;99.90;;;;;;5067145;28;20490;-80
2023/04/29 00:48:00;;;;;;;27.10;13.75;;;8.90;99.90;;;;;;5055152;28;20510;-80
2023/04/29 00:50:26;;;;;;;26.17;14.50;;;8.90;99.90;;;;;;5063562;28;20036;-78
2023/04/29 00:52:53;;;;;;;22.45;12.85;;;8.90;99.90;;;;;;5048200;28;20544;-78
2023/04/29 00:55:25;;;;;;;22.45;13.02;;;8.60;99.90;;;;;;5065995;28;20411;-80
2023/04/29 00:57:52;;;;;;;28.35;12.65;;;8.90;99.90;;;;;;5065601;28;20063;-78
2023/04/29 01:00:19;;;;;;;22.83;13.10;;;9.00;99.90;;;;;;5075203;28;20423;-78
2023/04/29 01:02:45;;;;;;;23.45;12.88;;;9.00;99.90;;;;;;5063967;28;20610;-80
2023/04/29 01:05:11;;;;;;;24.00;13.77;;;9.00;99.90;;;;;;5055422;28;20052;-76
2023/04/29 01:07:53;;;;;;;23.33;13.05;;;9.00;99.90;;;;;;5052883;28;20044;-79
2023/04/29 01:10:28;;;;;;;26.58;13.73;;;9.00;99.90;;;;;;5064928;28;20048;-77
2023/04/29 01:13:10;;;;;;;23.70;14.93;;;9.00;99.90;;;;;;5058953;28;20044;-77
2023/04/29 01:15:54;;;;;;;25.50;14.32;;;9.00;99.90;;;;;;5065783;28;20048;-79
2023/04/29 01:18:51;;;;;;;25.50;14.65;;;9.00;99.90;;;;;;5065432;28;20060;-77
2023/04/29 01:21:18;;;;;;;27.93;14.90;;;9.00;99.90;;;;;;5061848;28;20041;-76
2023/04/29 01:23:45;;;;;;;27.73;14.20;;;9.00;99.90;;;;;;5053032;28;20048;-76
2023/04/29 01:26:11;;;;;;;24.15;13.25;;;9.00;99.90;;;;;;5075836;28;20040;-78
2023/04/29 01:28:47;;;;;;;24.13;12.82;;;9.00;99.90;;;;;;5052166;28;20044;-76
2023/04/29 01:31:13;;;;;;;;;;;9.00;99.90;;;;;;5064600;28;20056;-77
2023/04/29 01:34:03;;;;;;;20.37;11.97;;;9.10;99.90;;;;;;5069227;28;19927;-78
2023/04/29 01:36:57;;;;;;;25.20;13.50;;;9.00;99.90;;;;;;5059694;28;20048;-77
2023/04/29 01:39:35;;;;;;;20.75;12.00;;;9.00;99.90;;;;;;5067552;28;20052;-78
2023/04/29 01:42:19;;;;;;;27.15;13.32;;;9.00;99.90;;;;;;5078383;28;20585;-78
2023/04/29 01:44:48;;;;;;;27.13;13.38;;;9.00;99.90;;;;;;5070132;28;20519;-77
2023/04/29 01:47:14;;;;;;;24.73;13.80;;;9.00;99.90;;;;;;5074523;28;20048;-76
2023/04/29 01:49:40;;;;;;;24.90;14.02;;;9.70;99.90;;;;;;5056643;28;20078;-77
2023/04/29 01:52:07;;;;;;;22.05;12.80;;;9.00;99.90;;;;;;5068810;28;20350;-78
2023/04/29 01:54:36;;;;;;;22.70;13.32;;;9.00;99.90;;;;;;5043221;28;20131;-77
2023/04/29 01:57:02;;;;;;;23.08;13.18;;;9.00;99.90;;;;;;5063206;28;20052;-76
2023/04/29 01:59:29;;;;;;;22.92;12.88;;;8.40;99.90;;;;;;5060970;28;20041;-77
2023/04/29 02:01:57;;;;;;;22.63;12.95;;;8.90;99.90;;;;;;5068395;28;20541;-79
2023/04/29 02:04:24;;;;;;;22.38;12.50;;;8.90;99.90;;;;;;5076385;28;20109;-77
2023/04/29 02:06:53;;;;;;;23.02;13.00;;;8.90;99.90;;;;;;5064212;28;20135;-77
2023/04/29 02:09:19;;;;;;;25.90;12.50;;;9.30;99.90;;;;;;5082755;28;20036;-77
2023/04/29 02:11:45;;;;;;;20.52;12.48;;;8.90;99.90;;;;;;5069659;28;20130;-77
2023/04/29 02:14:11;;;;;;;22.42;12.52;;;8.90;99.90;;;;;;5067401;28;20041;-79
2023/04/29 02:16:37;;;;;;;23.60;12.70;;;8.90;99.90;;;;;;5048148;28;20113;-78
2023/04/29 02:19:03;;;;;;;20.13;12.05;;;8.90;99.90;;;;;;5069511;28;20052;-78
2023/04/29 02:21:29;;;;;;;21.00;12.05;;;8.90;99.90;;;;;;5061553;28;20040;-78
2023/04/29 02:23:55;;;;;;;25.52;12.90;;;8.90;99.90;;;;;;5047169;28;20344;-77
2023/04/29 02:26:20;;;;;;;25.73;11.70;;;8.90;99.90;;;;;;5075051;28;20045;-76
2023/04/29 02:28:47;;;;;;;22.33;11.93;;;8.90;99.90;;;;;;5057338;28;20171;-77
2023/04/29 02:31:13;;;;;;;24.83;11.55;;;8.90;99.90;;;;;;5076944;28;20491;-77
2023/04/29 02:33:38;;;;;;;25.30;11.70;;;8.90;99.90;;;;;;5069577;28;20044;-78
2023/04/29 02:36:04;;;;;;;22.95;11.13;;;9.00;99.90;;;;;;5064465;28;20052;-78
2023/04/29 02:38:30;;;;;;;19.77;12.32;;;8.90;99.90;;;;;;5060987;28;20403;-76
2023/04/29 02:40:56;;;;;;;20.83;11.15;;;8.90;99.90;;;;;;5045451;28;20056;-78
2023/04/29 02:43:22;;;;;;;25.45;13.10;;;9.00;99.90;;;;;;5070375;28;20050;-79
2023/04/29 02:45:48;;;;;;;25.15;13.15;;;8.90;99.90;;;;;;5057148;28;20432;-77
2023/04/29 02:48:14;;;;;;;28.73;14.77;;;9.00;99.90;;;;;;5055000;28;20043;-77
2023/04/29 02:50:40;;;;;;;24.75;13.13;;;8.90;99.90;;;;;;5069027;28;20040;-78
2023/04/29 02:53:06;;;;;;;29.20;13.65;;;8.90;99.90;;;;;;5050203;28;20047;-77
2023/04/29 02:55:35;;;;;;;25.65;13.05;;;9.00;99.90;;;;;;5030514;28;20069;-77
2023/04/29 02:58:09;;;;;;;26.83;13.02;;;8.90;99.90;;;;;;5044613;28;20083;-77
2023/04/29 03:00:35;;;;;;;25.40;13.65;;;8.90;99.90;;;;;;5059156;28;20047;-76
2023/04/29 03:03:01;;;;;;;24.05;12.32;;;8.90;99.90;;;;;;5047981;28;20047;-77
2023/04/29 03:05:27;;;;;;;22.83;13.07;;;8.90;99.90;;;;;;5075031;28;20044;-77
2023/04/29 03:07:54;;;;;;;28.98;12.95;;;8.90;99.90;;;;;;5076045;28;21540;-76
2023/04/29 03:10:20;;;;;;;27.35;13.18;;;8.90;99.90;;;;;;5077829;28;20036;-77
2023/04/29 03:12:46;;;;;;;22.88;11.07;;;8.90;99.90;;;;;;5061876;28;20067;-77
2023/04/29 03:15:13;;;;;;;23.20;12.02;;;8.90;99.90;;;;;;5077187;28;20075;-76
2023/04/29 03:17:39;;;;;;;23.20;10.90;;;8.90;99.90;;;;;;5082961;28;20052;-78
2023/04/29 03:20:06;;;;;;;21.02;10.90;;;8.90;99.90;;;;;;5055501;28;20044;-77
2023/04/29 03:22:33;;;;;;;22.90;10.68;;;8.90;99.90;;;;;;5071559;28;20076;-76
2023/04/29 03:24:59;;;;;;;16.38;10.32;;;8.90;99.90;;;;;;5060159;28;20084;-77
2023/04/29 03:27:25;;;;;;;20.33;10.52;;;8.90;99.90;;;;;;5071206;28;20078;-78
2023/04/29 03:29:51;;;;;;;23.15;10.07;;;8.90;99.90;;;;;;5060619;28;20120;-77
2023/04/29 03:32:16;;;;;;;18.90;9.75;;;8.90;99.90;;;;;;5070747;28;20067;-77
2023/04/29 03:34:42;;;;;;;24.88;9.73;;;8.90;99.90;;;;;;5070019;28;20052;-77
2023/04/29 03:37:15;;;;;;;18.65;9.00;;;8.90;99.90;;;;;;5057597;28;20130;-78
2023/04/29 03:39:41;;;;;;;19.00;9.90;;;8.80;99.90;;;;;;5054674;28;20040;-77
2023/04/29 03:42:13;;;;;;;17.15;8.63;;;8.80;99.90;;;;;;5041491;28;20040;-76
2023/04/29 03:44:39;;;;;;;18.20;9.70;;;8.80;99.90;;;;;;5066943;28;20498;-78
2023/04/29 03:47:05;;;;;;;16.75;9.60;;;8.80;99.90;;;;;;5075786;28;20062;-78
2023/04/29 03:49:31;;;;;;;17.63;9.02;;;8.80;99.90;;;;;;5075841;28;20127;-76
2023/04/29 03:51:57;;;;;;;18.08;9.63;;;8.70;99.90;;;;;;5079961;28;20083;-77
2023/04/29 03:54:23;;;;;;;20.88;9.27;;;8.70;99.90;;;;;;5080689;28;20048;-77
2023/04/29 03:56:49;;;;;;;14.85;8.13;;;8.70;99.90;;;;;;5070069;28;20066;-77
2023/04/29 03:59:15;;;;;;;14.43;8.65;;;8.70;99.90;;;;;;5070822;28;20052;-79
2023/04/29 04:01:40;;;;;;;17.17;9.30;;;8.70;99.90;;;;;;5077131;28;20376;-76
2023/04/29 04:04:06;;;;;;;17.83;8.48;;;8.60;99.90;;;;;;5079910;28;20053;-77
2023/04/29 04:06:32;;;;;;;17.00;9.35;;;8.60;99.90;;;;;;5071542;28;20051;-77
2023/04/29 04:09:04;;;;;;;17.63;8.82;;;8.60;99.90;;;;;;5070800;28;20056;-78
2023/04/29 04:11:30;;;;;;;15.85;8.82;;;8.60;99.90;;;;;;5063936;28;20441;-77
2023/04/29 04:13:56;;;;;;;17.35;8.75;;;8.50;99.90;;;;;;5060675;28;20684;-77
2023/04/29 04:16:21;;;;;;;21.80;8.35;;;8.50;99.90;;;;;;5054858;28;20127;-76
2023/04/29 04:18:47;;;;;;;16.98;8.00;;;8.50;99.90;;;;;;5052660;28;20040;-76
2023/04/29 04:21:13;;;;;;;16.92;8.57;;;8.50;99.90;;;;;;5054432;28;20464;-78
2023/04/29 04:23:40;;;;;;;16.42;8.80;;;8.40;99.90;;;;;;5049127;28;20048;-78
2023/04/29 04:26:06;;;;;;;16.10;8.98;;;8.40;99.90;;;;;;5072611;28;20048;-77
2023/04/29 04:28:32;;;;;;;19.90;8.70;;;8.40;99.90;;;;;;5067554;28;20037;-76
2023/04/29 04:30:57;;;;;;;21.35;8.00;;;8.40;99.90;;;;;;5065721;28;20044;-76
2023/04/29 04:33:25;;;;;;;16.00;7.70;;;8.40;99.90;;;;;;5066830;28;20921;-76
2023/04/29 04:35:52;;;;;;;15.13;7.00;;;8.40;99.90;;;;;;5073450;28;20064;-77
2023/04/29 04:38:18;;;;;;;19.60;7.28;;;8.30;99.90;;;;;;5069416;28;20120;-78
2023/04/29 04:40:45;;;;;;;17.00;7.60;;;8.30;99.90;;;;;;5067192;28;20074;-76
2023/04/29 04:43:11;;;;;;;12.15;6.55;;;8.30;99.90;;;;;;5065669;28;20362;-77
2023/04/29 04:45:43;;;;;;;12.52;6.90;;;8.30;99.90;;;;;;5066398;28;20050;-77
2023/04/29 04:48:08;;;;;;;13.05;6.97;;;8.30;99.90;;;;;;5065235;28;20052;-76
2023/04/29 04:50:34;;;;;;;11.90;6.53;;;8.20;99.90;;;;;;5065673;28;20123;-77
2023/04/29 04:53:02;;;;;;;12.05;6.75;;;8.20;99.90;;;;;;5066555;28;20872;-77
2023/04/29 04:55:28;;;;;;;11.52;6.30;;;8.20;99.90;;;;;;5042155;28;20040;-77
2023/04/29 04:57:54;;;;;;;14.65;7.00;;;8.20;99.90;;;;;;5042406;28;20052;-76
2023/04/29 05:00:21;;;;;;;13.13;6.28;;;8.20;99.90;;;;;;5040987;28;20159;-76
2023/04/29 05:02:46;;;;;;;16.25;7.00;;;8.20;99.90;;;;;;5052967;28;20092;-79
2023/04/29 05:05:12;;;;;;;16.10;6.70;;;8.20;99.90;;;;;;5053843;28;20094;-77
2023/04/29 05:07:38;;;;;;;14.73;6.97;;;8.20;99.90;;;;;;5066172;28;20162;-77
2023/04/29 05:10:05;;;;;;;13.60;6.22;;;8.20;99.90;;;;;;5048543;28;20048;-79
2023/04/29 05:12:31;;;;;;;15.70;6.43;;;8.20;99.90;;;;;;5072764;28;20044;-79
2023/04/29 05:14:57;;;;;;;11.93;6.15;;;8.20;99.90;;;;;;5055304;28;20056;-78
2023/04/29 05:17:23;;;;;;;13.93;5.85;;;8.20;99.90;;;;;;5067590;28;20494;-76
2023/04/29 05:19:48;;;;;;;14.60;5.85;;;8.20;99.90;;;;;;5054051;28;20033;-77
2023/04/29 05:22:14;;;;;;;14.80;5.60;;;8.30;99.90;;;;;;5054457;28;20044;-77
2023/04/29 05:24:40;;;;;;;11.57;5.72;;;8.30;99.90;;;;;;5053840;28;20044;-77
2023/04/29 05:27:09;;;;;;;13.75;5.30;;;8.30;99.90;;;;;;5041337;28;20448;-78
2023/04/29 05:29:35;;;;;;;14.43;5.43;;;8.30;99.90;;;;;;5075038;28;20122;-78
2023/04/29 05:32:03;;;;;;;13.50;5.53;;;8.30;99.90;;;;;;5046838;28;20055;-77
2023/04/29 05:34:29;;;;;;;12.23;5.28;;;8.30;99.90;;;;;;5064559;28;20055;-77
2023/04/29 05:36:58;;;;;;;14.13;5.38;;;8.40;99.90;;;;;;5065625;28;20044;-77
2023/04/29 05:39:23;;;;;;;14.52;5.07;;;8.40;99.90;;;;;;5057827;28;20040;-76
2023/04/29 05:41:49;;;;;;;14.43;5.03;;;8.40;99.90;;;;;;5066761;28;20047;-76
2023/04/29 05:44:15;;;;;;;18.60;5.55;;;8.50;99.90;;;;;;5064830;28;20124;-77
2023/04/29 05:46:42;;;;;;;13.60;4.80;;;8.50;99.90;;;;;;5055602;28;20105;-77
2023/04/29 05:49:12;;;;;;;15.73;4.72;;;8.50;99.90;;;;;;5074705;28;20118;-77
2023/04/29 05:51:38;;;;;;;15.18;4.50;;;8.60;99.90;;;;;;5062988;28;20158;-76
2023/04/29 05:54:04;;;;;;;10.00;5.03;;;8.60;99.90;;;;;;5054310;28;20548;-78
2023/04/29 05:56:30;;;;;;;14.25;4.75;;;8.90;99.90;;;;;;5065366;28;20090;-77
2023/04/29 05:58:56;;;;;;;10.88;5.00;;;8.60;99.90;;;;;;5069817;28;20056;-78
2023/04/29 06:01:23;;;;;;;11.00;5.00;;;8.60;99.90;;;;;;5052633;28;20126;-77
2023/04/29 06:03:48;;;;;;;11.95;4.70;;;8.70;99.90;;;;;;5039662;28;20045;-77
2023/04/29 06:06:15;;;;;;;14.00;5.45;;;8.70;99.90;;;;;;5055301;28;20105;-77
2023/04/29 06:08:41;;;;;;;11.75;5.43;;;8.80;99.90;;;;;;5045301;28;20036;-77
2023/04/29 06:11:06;;;;;;;9.25;5.00;;;8.80;99.90;;;;;;5067855;28;20060;-77
2023/04/29 06:13:36;;;;;;;11.55;4.53;;;8.80;99.90;;;;;;5070558;28;20048;-76
2023/04/29 06:16:06;;;;;;;11.05;4.90;;;8.90;99.90;;;;;;5079846;28;20086;-75
2023/04/29 06:18:34;;;;;;;13.18;5.32;;;8.90;99.90;;;;;;5057141;28;20041;-75
2023/04/29 06:20:59;;;;;;;10.50;4.40;;;9.00;99.90;;;;;;5076947;28;20475;-76
2023/04/29 06:23:25;;;;;;;19.20;6.07;;;9.00;99.90;;;;;;5037267;28;20073;-76
2023/04/29 06:25:51;;;;;;;14.20;6.00;;;9.10;99.90;;;;;;5062469;28;20040;-76
2023/04/29 06:28:17;;;;;;;15.05;5.70;;;9.20;99.90;;;;;;5056825;28;20415;-77
2023/04/29 06:30:44;;;;;;;12.60;5.95;;;9.20;99.90;;;;;;5067719;28;20048;-79
2023/04/29 06:33:12;;;;;;;14.07;6.07;;;9.30;99.90;;;;;;5059295;28;20097;-78
2023/04/29 06:35:45;;;;;;;13.30;6.78;;;9.40;99.90;;;;;;5059088;28;20052;-79
2023/04/29 06:38:11;;;;;;;17.50;7.25;;;8.80;99.90;;;;;;5076249;28;20076;-78
2023/04/29 06:40:37;;;;;;;14.05;6.47;;;9.60;99.90;;;;;;5067000;28;20071;-78
2023/04/29 06:43:05;;;;;;;14.18;6.57;;;9.70;99.90;;;;;;5058638;28;20075;-79
2023/04/29 06:45:31;;;;;;;13.40;5.97;;;9.80;99.90;;;;;;5044703;28;20052;-78
2023/04/29 06:47:57;;;;;;;10.38;5.60;;;10.00;99.90;;;;;;5062541;28;20144;-79
2023/04/29 06:50:23;;;;;;;14.35;5.95;;;10.00;99.90;;;;;;5060891;28;20968;-77
2023/04/29 06:52:49;;;;;;;16.08;5.40;;;10.20;99.90;;;;;;5043740;28;20086;-79
2023/04/29 06:55:15;;;;;;;17.38;5.85;;;10.30;99.90;;;;;;5048878;28;20075;-78
2023/04/29 06:57:41;;;;;;;9.80;4.63;;;10.40;99.90;;;;;;5067203;28;20484;-79
2023/04/29 07:00:07;;;;;;;13.70;5.40;;;10.50;99.90;;;;;;5048215;28;20483;-78
2023/04/29 07:02:33;;;;;;;10.00;4.97;;;10.60;99.90;;;;;;5066450;28;20051;-78
2023/04/29 07:04:59;;;;;;;8.82;4.50;;;10.80;99.90;;;;;;5065462;28;20052;-78
2023/04/29 07:07:26;;;;;;;8.00;4.25;;;10.90;99.90;;;;;;5067367;28;20142;-77
2023/04/29 07:09:53;;;;;;;11.48;4.97;;;11.00;99.90;;;;;;5039245;28;20503;-76
2023/04/29 07:12:20;;;;;;;9.65;4.80;;;11.10;99.90;;;;;;5053091;28;20108;-78
2023/04/29 07:14:46;;;;;;;8.32;4.50;;;11.30;99.90;;;;;;5037626;28;20040;-76
2023/04/29 07:17:12;;;;;;;11.55;5.10;;;11.40;99.90;;;;;;5063741;28;20048;-77
2023/04/29 07:19:38;;;;;;;10.07;4.30;;;11.60;99.90;;;;;;5065146;28;20051;-78
2023/04/29 07:22:07;;;;;;;10.38;4.72;;;11.70;99.90;;;;;;5052395;28;20297;-79
2023/04/29 07:24:33;;;;;;;12.10;5.63;;;11.90;99.90;;;;;;5059330;28;20045;-78
2023/04/29 07:26:59;;;;;;;9.45;4.65;;;12.00;99.90;;;;;;5062914;28;20110;-77
2023/04/29 07:29:25;;;;;;;9.43;4.65;;;12.20;99.90;;;;;;5064127;28;20047;-78
2023/04/29 07:31:51;;;;;;;10.80;4.82;;;12.30;99.90;;;;;;5063731;28;20734;-76
2023/04/29 07:34:16;;;;;;;8.13;5.53;;;12.50;99.90;;;;;;5048204;28;20052;-77
2023/04/29 07:36:42;;;;;;;9.93;4.88;;;12.60;99.90;;;;;;5059442;28;20136;-78
2023/04/29 07:39:08;;;;;;;11.60;5.13;;;12.90;99.90;;;;;;5064629;28;20090;-78
2023/04/29 07:41:34;;;;;;;9.23;4.53;;;13.00;99.90;;;;;;5059075;28;20514;-79
2023/04/29 07:43:59;;;;;;;8.63;4.75;;;13.10;99.90;;;;;;5066756;28;20056;-78
2023/04/29 07:46:26;;;;;;;10.93;5.28;;;13.30;99.90;;;;;;5057900;28;20079;-77
2023/04/29 07:48:51;;;;;;;10.57;4.75;;;13.40;99.90;;;;;;5065248;28;20051;-77
2023/04/29 07:51:17;;;;;;;8.52;4.47;;;13.40;99.90;;;;;;5056832;28;20035;-78
2023/04/29 07:53:43;;;;;;;9.38;4.65;;;13.70;99.90;;;;;;5036813;28;20044;-77
2023/04/29 07:56:09;;;;;;;9.18;4.40;;;13.80;99.90;;;;;;5059619;28;20410;-78
2023/04/29 07:58:35;;;;;;;10.38;4.57;;;13.90;99.90;;;;;;5065886;28;20044;-77
2023/04/29 08:01:10;;;;;;;9.90;4.80;;;13.00;99.90;;;;;;5058387;28;20505;-76
2023/04/29 08:03:37;;;;;;;7.75;4.75;;;14.00;99.90;;;;;;5074257;28;20510;-78
2023/04/29 08:06:03;;;;;;;6.45;4.28;;;14.20;99.90;;;;;;5054748;28;20048;-77
2023/04/29 08:08:32;;;;;;;10.30;5.30;;;14.30;99.90;;;;;;5031009;28;20093;-78
2023/04/29 08:10:58;;;;;;;9.95;4.80;;;14.40;99.90;;;;;;5043160;28;20119;-77
2023/04/29 08:13:24;;;;;;;8.52;4.20;;;14.50;99.90;;;;;;5052617;28;20216;-78
2023/04/29 08:15:52;;;;;;;8.65;4.53;;;14.60;99.90;;;;;;5048324;28;20597;-77
2023/04/29 08:18:18;;;;;;;9.43;4.85;;;14.90;99.90;;;;;;5065155;28;20079;-78
2023/04/29 08:20:44;;;;;;;10.10;5.00;;;15.20;99.90;;;;;;5075402;28;20119;-77
2023/04/29 08:23:10;;;;;;;8.40;4.38;;;15.40;99.90;;;;;;5052462;28;20159;-77
2023/04/29 08:25:42;;;;;;;9.75;4.63;;;15.50;99.90;;;;;;5063556;28;20044;-77
2023/04/29 08:28:08;;;;;;;9.95;4.15;;;15.50;99.90;;;;;;5067996;28;21087;-77
2023/04/29 08:30:41;;;;;;;8.93;4.53;;;15.60;99.90;;;;;;5073659;28;20036;-77
2023/04/29 08:33:08;;;;;;;8.88;4.05;;;15.70;99.90;;;;;;5064604;28;20040;-77
2023/04/29 08:35:36;;;;;;;9.45;4.22;;;15.80;99.90;;;;;;5065704;28;20503;-78
2023/04/29 08:38:04;;;;;;;7.53;3.92;;;15.80;99.90;;;;;;5066515;28;20292;-77
2023/04/29 08:40:32;;;;;;;9.18;4.30;;;15.70;99.90;;;;;;5053614;28;20067;-78
2023/04/29 08:43:00;;;;;;;8.18;3.70;;;15.70;99.90;;;;;;5054408;28;20040;-78
2023/04/29 08:45:27;;;;;;;10.10;4.13;;;15.70;99.90;;;;;;5062243;28;20055;-78
2023/04/29 08:47:58;;;;;;;10.90;4.43;;;15.70;99.90;;;;;;5065066;28;20051;-77
2023/04/29 08:50:26;;;;;;;7.88;4.18;;;15.90;99.90;;;;;;5025917;28;20048;-78
2023/04/29 08:52:53;;;;;;;7.25;3.85;;;15.90;99.90;;;;;;5056581;28;21119;-78
2023/04/29 08:55:19;;;;;;;9.57;3.88;;;15.90;99.90;;;;;;5042152;28;20521;-78
2023/04/29 08:57:47;;;;;;;8.85;4.00;;;15.90;99.90;;;;;;5057202;28;20044;-77
2023/04/29 09:00:14;;;;;;;8.65;3.95;;;15.90;99.90;;;;;;5066077;28;20095;-76
2023/04/29 09:02:49;;;;;;;10.18;3.50;;;15.80;99.90;;;;;;5064205;28;20556;-76
2023/04/29 09:05:20;;;;;;;10.15;3.92;;;15.90;99.90;;;;;;5064787;28;20072;-74
2023/04/29 09:07:47;;;;;;;7.50;3.47;;;16.00;99.90;;;;;;5071466;28;20058;-76
2023/04/29 09:10:14;;;;;;;10.73;3.60;;;16.10;99.90;;;;;;5073678;28;20114;-77
2023/04/29 09:12:40;;;;;;;8.35;3.47;;;16.20;99.90;;;;;;5070878;28;20502;-77
2023/04/29 09:15:07;;;;;;;10.57;3.38;;;16.30;99.90;;;;;;5075293;28;20044;-78
2023/04/29 09:17:40;;;;;;;6.30;3.00;;;16.40;99.90;;;;;;5071604;28;20541;-79
2023/04/29 09:20:22;;;;;;;5.38;2.83;;;16.30;99.90;;;;;;5069164;28;20128;-78
2023/04/29 09:22:49;;;;;;;7.78;3.20;;;16.20;99.90;;;;;;5053212;28;20784;-77
2023/04/29 09:25:15;;;;;;;8.05;3.13;;;16.30;99.90;;;;;;5063348;28;20041;-76
2023/04/29 09:27:41;;;;;;;7.35;3.10;;;16.50;99.90;;;;;;5056356;28;20579;-78
2023/04/29 09:30:08;;;;;;;7.72;3.13;;;16.80;99.90;;;;;;5064688;28;20124;-77
2023/04/29 09:32:35;;;;;;;6.72;2.90;;;17.00;99.90;;;;;;5071110;28;20518;-78
2023/04/29 09:35:20;;;;;;;7.13;2.80;;;17.20;99.90;;;;;;5063953;28;20040;-76
2023/04/29 09:37:45;;;;;;;5.47;2.90;;;17.40;99.90;;;;;;5063944;28;20067;-78
2023/04/29 09:40:47;;;;;;;5.47;2.53;;;17.60;99.90;;;;;;5045811;28;20043;-78
2023/04/29 09:43:17;;;;;;;5.68;2.85;;;18.00;99.90;;;;;;4963100;28;20054;-77
2023/04/29 09:45:46;;;;;;;7.50;3.03;;;18.30;99.90;;;;;;5052061;28;20074;-77
2023/04/29 09:48:19;;;;;;;5.88;3.10;;;18.30;99.90;;;;;;5062544;28;20041;-76
2023/04/29 09:51:04;;;;;;;6.55;2.58;;;17.60;99.90;;;;;;5039085;28;20933;-77
2023/04/29 09:53:30;;;;;;;6.57;3.20;;;18.40;99.90;;;;;;5071636;28;20525;-76
2023/04/29 09:56:17;;;;;;;6.30;3.17;;;18.60;99.90;;;;;;5067729;28;20762;-76
2023/04/29 09:58:43;;;;;;;6.55;2.33;;;18.70;99.90;;;;;;5058294;28;20052;-75
2023/04/29 10:01:12;;;;;;;6.43;3.00;;;18.80;99.90;;;;;;5071180;28;20897;-77
2023/04/29 10:03:40;;;;;;;3.83;2.25;;;18.80;99.90;;;;;;5059399;28;20043;-76
2023/04/29 10:06:07;;;;;;;6.90;2.60;;;19.00;99.90;;;;;;5068958;28;20056;-77
2023/04/29 10:08:34;;;;;;;4.82;2.30;;;19.00;99.90;;;;;;5066257;28;20566;-77
2023/04/29 10:11:03;;;;;;;8.07;2.88;;;19.10;99.90;;;;;;5026192;28;20044;-76
2023/04/29 10:13:30;;;;;;;6.57;2.15;;;19.20;99.90;;;;;;5078619;28;20048;-78
2023/04/29 10:16:07;;;;;;;5.95;2.40;;;19.30;99.90;;;;;;5069735;28;20055;-77
2023/04/29 10:18:39;;;;;;;5.32;2.17;;;19.50;99.90;;;;;;5053109;28;20062;-78
2023/04/29 10:21:08;;;;;;;6.15;2.53;;;19.80;99.90;;;;;;5065887;28;21538;-78
2023/04/29 10:23:36;;;;;;;7.07;2.72;;;19.90;99.90;;;;;;5076994;28;20093;-77
2023/04/29 10:26:02;;;;;;;7.82;2.20;;;20.00;99.40;;;;;;5069430;28;20110;-76
2023/04/29 10:28:36;;;;;;;5.03;2.13;;;19.90;98.40;;;;;;5079517;28;20261;-78
2023/04/29 10:31:07;;;;;;;6.57;2.15;;;20.00;98.10;;;;;;5070373;28;20044;-77
2023/04/29 10:33:48;;;;;;;4.47;2.10;;;20.10;97.80;;;;;;5073737;28;20032;-77
2023/04/29 10:36:14;;;;;;;4.45;1.98;;;19.90;96.90;;;;;;5057975;28;20054;-77
2023/04/29 10:38:46;;;;;;;3.17;1.75;;;20.10;96.60;;;;;;5069760;28;20144;-77
2023/04/29 10:41:24;;;;;;;5.82;1.90;;;20.30;95.90;;;;;;5068407;28;20448;-78
2023/04/29 10:43:53;;;;;;;4.18;1.63;;;20.30;95.40;;;;;;5055802;28;20065;-77
2023/04/29 10:46:27;;;;;;;5.00;1.83;;;20.60;95.70;;;;;;5061804;28;20058;-79
2023/04/29 10:49:05;;;;;;;4.90;2.17;;;20.90;95.20;;;;;;5067980;28;20063;-78
2023/04/29 10:51:39;;;;;;;3.53;1.60;;;21.00;92.80;;;;;;5057032;28;20043;-78
2023/04/29 10:54:16;;;;;;;4.50;1.70;;;21.10;94.00;;;;;;5076184;28;20048;-78
2023/04/29 10:56:50;;;;;;;4.60;1.65;;;20.80;92.90;;;;;;5068285;28;20517;-78
2023/04/29 10:59:21;;;;;;;3.97;1.73;;;20.80;93.30;;;;;;5062277;28;20102;-78
2023/04/29 11:01:52;;;;;;;5.25;1.85;;;20.90;94.00;;;;;;5067518;28;20048;-78
2023/04/29 11:04:21;;;;;;;4.18;1.50;;;21.10;93.70;;;;;;5077698;28;20051;-79
2023/04/29 11:06:52;;;;;;;5.50;2.08;;;21.20;94.00;;;;;;5068216;28;20052;-76
2023/04/29 11:09:20;;;;;;;3.50;1.70;;;21.30;93.70;;;;;;5057884;28;20051;-76
2023/04/29 11:12:02;;;;;;;4.13;1.65;;;21.40;94.00;;;;;;5075126;28;20082;-78
2023/04/29 11:14:29;;;;;;;4.50;1.42;;;21.60;93.30;;;;;;5071192;28;20071;-79
2023/04/29 11:17:18;;;;;;;4.47;1.30;;;21.60;92.50;;;;;;5070082;28;20044;-78
2023/04/29 11:19:47;;;;;;;3.28;1.60;;;21.70;92.00;;;;;;5054765;28;20040;-78
2023/04/29 11:22:34;;;;;;;3.88;1.40;;;22.00;91.80;;;;;;5068722;28;20064;-78
2023/04/29 11:25:20;;;;;;;5.43;1.63;;;22.10;88.50;;;;;;5066955;28;20048;-79
2023/04/29 11:27:48;;;;;;;3.30;1.35;;;22.20;90.40;;;;;;5051723;28;20402;-79
2023/04/29 11:30:15;;;;;;;4.35;1.45;;;22.30;88.90;;;;;;5077237;28;20047;-78
2023/04/29 11:32:44;;;;;;;4.43;1.80;;;22.60;88.50;;;;;;5074789;28;20044;-80
2023/04/29 11:35:18;;;;;;;5.03;1.73;;;22.60;86.60;;;;;;5074921;28;20646;-76
2023/04/29 11:37:46;;;;;;;4.28;1.70;;;22.50;84.10;;;;;;5042056;28;20127;-77
2023/04/29 11:40:13;;;;;;;2.80;1.40;;;22.70;85.90;;;;;;5064738;28;20048;-77
2023/04/29 11:42:48;;;;;;;6.05;1.95;;;22.60;83.70;;;;;;5066791;28;20047;-77
2023/04/29 11:45:16;;;;;;;;;;;22.70;81.90;;;;;;5079409;28;20044;-78
2023/04/29 11:47:46;;;;;;;3.35;2.33;;;22.60;79.30;;;;;;5051209;28;20287;-78
2023/04/29 11:50:14;;;;;;;3.80;1.50;;;22.60;82.90;;;;;;5068483;28;20048;-78
2023/04/29 11:52:40;;;;;;;5.80;1.70;;;22.70;82.90;;;;;;5075136;28;20079;-78
2023/04/29 11:55:11;;;;;;;3.17;1.52;;;22.80;82.00;;;;;;5063685;28;20526;-79
2023/04/29 11:57:38;;;;;;;4.25;1.60;;;22.70;79.60;;;;;;5069810;28;20051;-79
2023/04/29 12:00:04;;;;;;;2.60;1.40;;;22.60;79.20;;;;;;5017357;28;20135;-78
2023/04/29 12:02:34;;;;;;;2.55;1.42;;;22.60;77.30;;;;;;5066189;28;20044;-78
2023/04/29 12:05:06;;;;;;;2.88;1.52;;;22.80;75.90;;;;;;5053715;28;20045;-77
2023/04/29 12:07:31;;;;;;;3.80;1.30;;;22.70;75.00;;;;;;5055583;28;20052;-78
2023/04/29 12:09:57;;;;;;;4.82;1.95;;;22.90;76.20;;;;;;5065728;28;20048;-78
2023/04/29 12:12:23;;;;;;;3.65;1.45;;;23.10;75.20;;;;;;5062876;28;20048;-78
2023/04/29 12:14:49;;;;;;;8.40;4.30;;;23.30;74.30;;;;;;5033556;28;20105;-78
2023/04/29 12:17:16;;;;;;;9.02;4.20;;;23.30;73.00;;;;;;5048390;28;20429;-76
2023/04/29 12:19:42;;;;;;;4.35;2.40;;;23.20;73.40;;;;;;5070360;28;20079;-78
2023/04/29 12:22:09;;;;;;;4.25;1.85;;;23.20;74.10;;;;;;5054242;28;20048;-77
2023/04/29 12:24:39;;;;;;;6.05;2.50;;;23.40;74.70;;;;;;5064003;28;20043;-77
2023/04/29 12:27:09;;;;;;;7.10;4.15;;;23.40;73.80;;;;;;5074744;28;20044;-76
2023/04/29 12:29:39;;;;;;;5.45;2.83;;;23.30;72.80;;;;;;5067841;28;20044;-77
2023/04/29 12:32:05;;;;;;;10.20;4.93;;;23.50;73.00;;;;;;5062922;28;20040;-76
2023/04/29 12:34:32;;;;;;;11.82;5.93;;;23.40;73.00;;;;;;5065377;28;20557;-76
2023/04/29 12:36:59;;;;;;;8.02;3.38;;;23.50;73.00;;;;;;5041332;28;20052;-76
2023/04/29 12:39:30;;;;;;;11.25;5.88;;;23.60;70.20;;;;;;5076770;28;20045;-76
2023/04/29 12:42:06;;;;;;;8.85;4.32;;;23.60;66.70;;;;;;5065761;28;20056;-79
2023/04/29 12:44:36;;;;;;;8.45;5.05;;;23.30;67.60;;;;;;5056816;28;20125;-77
2023/04/29 12:47:12;;;;;;;7.32;2.00;;;23.00;69.50;;;;;;5064964;28;20048;-77
2023/04/29 12:49:46;;;;;;;5.53;2.05;;;22.80;69.10;;;;;;5060037;28;20526;-78